sensor_id;sensor_type;location;lat;lon;timestamp;P1;durP1;ratioP1;P2;durP2;ratioP2
16543;SDS011;8384;47.996;7.786;2023-07-24T00:01:46;10.17;;;8.73;;
16543;SDS011;8384;47.996;7.786;2023-07-24T00:04:12;10.30;;;8.40;;
16543;SDS011;8384;47.996;7.786;2023-07-24T00:06:38;9.77;;;8.77;;
16543;SDS011;8384;47.996;7.786;2023-07-24T00:09:03;9.00;;;8.10;;
16543;SDS011;8384;47.996;7.786;2023-07-24T00:11:29;9.17;;;7.70;;
16543;SDS011;8384;47.996;7.786;2023-07-24T00:13:54;9.10;;;8.03;;
16543;SDS011;8384;47.996;7.786;2023-07-24T00:16:19;9.90;;;7.47;;
16543;SDS011;8384;47.996;7.786;2023-07-24T00:18:44;9.30;;;8.30;;
16543;SDS011;8384;47.996;7.786;2023-07-24T00:21:10;8.50;;;7.00;;
16543;SDS011;8384;47.996;7.786;2023-07-24T00:23:35;8.70;;;7.73;;
16543;SDS011;8384;47.996;7.786;2023-07-24T00:26:01;9.10;;;8.20;;
16543;SDS011;8384;47.996;7.786;2023-07-24T00:28:26;9.13;;;8.23;;
16543;SDS011;8384;47.996;7.786;2023-07-24T00:30:52;9.20;;;7.43;;
16543;SDS011;8384;47.996;7.786;2023-07-24T00:33:17;10.07;;;8.07;;
16543;SDS011;8384;47.996;7.786;2023-07-24T00:35:42;8.90;;;8.00;;
16543;SDS011;8384;47.996;7.786;2023-07-24T00:38:07;10.03;;;8.33;;
16543;SDS011;8384;47.996;7.786;2023-07-24T00:40:33;8.30;;;7.50;;
16543;SDS011;8384;47.996;7.786;2023-07-24T00:42:58;9.93;;;8.10;;
16543;SDS011;8384;47.996;7.786;2023-07-24T00:45:24;8.80;;;7.90;;
16543;SDS011;8384;47.996;7.786;2023-07-24T00:47:50;10.60;;;8.23;;
16543;SDS011;8384;47.996;7.786;2023-07-24T00:50:16;8.93;;;8.03;;
16543;SDS011;8384;47.996;7.786;2023-07-24T00:52:41;7.77;;;7.07;;
16543;SDS011;8384;47.996;7.786;2023-07-24T00:55:07;8.13;;;7.33;;
16543;SDS011;8384;47.996;7.786;2023-07-24T00:57:35;9.73;;;8.73;;
16543;SDS011;8384;47.996;7.786;2023-07-24T01:00:01;9.65;;;8.75;;
16543;SDS011;8384;47.996;7.786;2023-07-24T01:02:28;8.93;;;8.13;;
16543;SDS011;8384;47.996;7.786;2023-07-24T01:04:55;9.73;;;8.82;;
16543;SDS011;8384;47.996;7.786;2023-07-24T01:07:20;9.53;;;8.63;;
16543;SDS011;8384;47.996;7.786;2023-07-24T01:09:45;9.30;;;8.40;;
16543;SDS011;8384;47.996;7.786;2023-07-24T01:14:51;8.70;;;7.88;;
16543;SDS011;8384;47.996;7.786;2023-07-24T01:17:22;8.40;;;7.70;;
16543;SDS011;8384;47.996;7.786;2023-07-24T01:19:50;9.18;;;8.27;;
16543;SDS011;8384;47.996;7.786;2023-07-24T01:25:00;9.68;;;8.77;;
16543;SDS011;8384;47.996;7.786;2023-07-24T01:27:34;9.47;;;8.57;;
16543;SDS011;8384;47.996;7.786;2023-07-24T01:29:59;9.60;;;8.47;;
16543;SDS011;8384;47.996;7.786;2023-07-24T01:32:25;9.97;;;9.07;;
16543;SDS011;8384;47.996;7.786;2023-07-24T01:34:52;9.13;;;8.23;;
16543;SDS011;8384;47.996;7.786;2023-07-24T01:37:20;9.57;;;8.57;;
16543;SDS011;8384;47.996;7.786;2023-07-24T01:39:45;9.85;;;8.93;;
16543;SDS011;8384;47.996;7.786;2023-07-24T01:42:12;9.68;;;8.77;;
16543;SDS011;8384;47.996;7.786;2023-07-24T01:44:38;9.80;;;8.90;;
16543;SDS011;8384;47.996;7.786;2023-07-24T01:47:03;9.97;;;8.97;;
16543;SDS011;8384;47.996;7.786;2023-07-24T01:49:28;9.80;;;8.90;;
16543;SDS011;8384;47.996;7.786;2023-07-24T01:51:54;9.55;;;8.65;;
16543;SDS011;8384;47.996;7.786;2023-07-24T01:54:19;9.33;;;8.53;;
16543;SDS011;8384;47.996;7.786;2023-07-24T01:56:44;9.40;;;8.50;;
16543;SDS011;8384;47.996;7.786;2023-07-24T01:59:10;9.13;;;8.33;;
16543;SDS011;8384;47.996;7.786;2023-07-24T02:01:35;9.23;;;8.33;;
16543;SDS011;8384;47.996;7.786;2023-07-24T02:04:01;9.73;;;8.83;;
16543;SDS011;8384;47.996;7.786;2023-07-24T02:06:26;9.70;;;8.70;;
16543;SDS011;8384;47.996;7.786;2023-07-24T02:08:51;9.20;;;8.30;;
16543;SDS011;8384;47.996;7.786;2023-07-24T02:11:17;9.87;;;8.97;;
16543;SDS011;8384;47.996;7.786;2023-07-24T02:13:46;10.20;;;9.20;;
16543;SDS011;8384;47.996;7.786;2023-07-24T02:16:14;9.10;;;8.27;;
16543;SDS011;8384;47.996;7.786;2023-07-24T02:18:41;9.07;;;8.27;;
16543;SDS011;8384;47.996;7.786;2023-07-24T02:21:07;9.57;;;8.68;;
16543;SDS011;8384;47.996;7.786;2023-07-24T02:23:33;10.27;;;9.20;;
16543;SDS011;8384;47.996;7.786;2023-07-24T02:25:58;9.87;;;8.97;;
16543;SDS011;8384;47.996;7.786;2023-07-24T02:28:23;10.02;;;9.13;;
16543;SDS011;8384;47.996;7.786;2023-07-24T02:30:49;9.97;;;9.03;;
16543;SDS011;8384;47.996;7.786;2023-07-24T02:33:16;10.48;;;9.52;;
16543;SDS011;8384;47.996;7.786;2023-07-24T02:35:42;9.50;;;8.63;;
16543;SDS011;8384;47.996;7.786;2023-07-24T02:38:08;9.25;;;8.45;;
16543;SDS011;8384;47.996;7.786;2023-07-24T02:40:33;9.40;;;8.50;;
16543;SDS011;8384;47.996;7.786;2023-07-24T02:42:59;9.05;;;8.25;;
16543;SDS011;8384;47.996;7.786;2023-07-24T02:45:24;10.05;;;9.15;;
16543;SDS011;8384;47.996;7.786;2023-07-24T02:47:49;9.47;;;8.57;;
16543;SDS011;8384;47.996;7.786;2023-07-24T02:50:15;9.67;;;8.77;;
16543;SDS011;8384;47.996;7.786;2023-07-24T02:52:40;10.27;;;9.23;;
16543;SDS011;8384;47.996;7.786;2023-07-24T02:55:05;9.10;;;8.30;;
16543;SDS011;8384;47.996;7.786;2023-07-24T02:57:31;9.52;;;8.70;;
16543;SDS011;8384;47.996;7.786;2023-07-24T02:59:56;9.32;;;8.50;;
16543;SDS011;8384;47.996;7.786;2023-07-24T03:02:22;9.83;;;8.93;;
16543;SDS011;8384;47.996;7.786;2023-07-24T03:04:47;9.70;;;8.80;;
16543;SDS011;8384;47.996;7.786;2023-07-24T03:07:12;9.70;;;8.73;;
16543;SDS011;8384;47.996;7.786;2023-07-24T03:09:38;9.32;;;8.52;;
16543;SDS011;8384;47.996;7.786;2023-07-24T03:12:03;9.37;;;8.57;;
16543;SDS011;8384;47.996;7.786;2023-07-24T03:14:28;9.57;;;8.67;;
16543;SDS011;8384;47.996;7.786;2023-07-24T03:16:54;9.43;;;8.53;;
16543;SDS011;8384;47.996;7.786;2023-07-24T03:19:19;8.70;;;8.00;;
16543;SDS011;8384;47.996;7.786;2023-07-24T03:21:45;9.47;;;8.67;;
16543;SDS011;8384;47.996;7.786;2023-07-24T03:24:10;9.50;;;8.60;;
16543;SDS011;8384;47.996;7.786;2023-07-24T03:26:36;9.70;;;8.80;;
16543;SDS011;8384;47.996;7.786;2023-07-24T03:29:01;10.02;;;9.13;;
16543;SDS011;8384;47.996;7.786;2023-07-24T03:31:26;9.83;;;8.93;;
16543;SDS011;8384;47.996;7.786;2023-07-24T03:33:51;10.07;;;9.07;;
16543;SDS011;8384;47.996;7.786;2023-07-24T03:36:17;9.83;;;8.93;;
16543;SDS011;8384;47.996;7.786;2023-07-24T03:38:42;9.30;;;8.40;;
16543;SDS011;8384;47.996;7.786;2023-07-24T03:41:07;9.30;;;8.40;;
16543;SDS011;8384;47.996;7.786;2023-07-24T03:43:32;9.10;;;8.30;;
16543;SDS011;8384;47.996;7.786;2023-07-24T03:45:58;9.15;;;8.35;;
16543;SDS011;8384;47.996;7.786;2023-07-24T03:48:23;9.10;;;8.30;;
16543;SDS011;8384;47.996;7.786;2023-07-24T03:50:49;9.53;;;8.63;;
16543;SDS011;8384;47.996;7.786;2023-07-24T03:53:15;9.77;;;8.88;;
16543;SDS011;8384;47.996;7.786;2023-07-24T03:55:41;9.47;;;8.67;;
16543;SDS011;8384;47.996;7.786;2023-07-24T03:58:06;9.93;;;9.03;;
16543;SDS011;8384;47.996;7.786;2023-07-24T04:00:31;9.77;;;8.87;;
16543;SDS011;8384;47.996;7.786;2023-07-24T04:02:57;8.80;;;8.00;;
16543;SDS011;8384;47.996;7.786;2023-07-24T04:05:22;9.27;;;8.47;;
16543;SDS011;8384;47.996;7.786;2023-07-24T04:07:47;9.50;;;8.60;;
16543;SDS011;8384;47.996;7.786;2023-07-24T04:10:12;9.10;;;8.30;;
16543;SDS011;8384;47.996;7.786;2023-07-24T04:12:38;9.63;;;8.73;;
16543;SDS011;8384;47.996;7.786;2023-07-24T04:15:03;9.03;;;8.23;;
16543;SDS011;8384;47.996;7.786;2023-07-24T04:17:29;9.27;;;8.30;;
16543;SDS011;8384;47.996;7.786;2023-07-24T04:19:54;9.43;;;8.53;;
16543;SDS011;8384;47.996;7.786;2023-07-24T04:22:20;9.50;;;8.60;;
16543;SDS011;8384;47.996;7.786;2023-07-24T04:24:45;9.67;;;8.67;;
16543;SDS011;8384;47.996;7.786;2023-07-24T04:27:10;9.43;;;8.55;;
16543;SDS011;8384;47.996;7.786;2023-07-24T04:29:35;9.80;;;8.90;;
16543;SDS011;8384;47.996;7.786;2023-07-24T04:32:01;9.43;;;8.53;;
16543;SDS011;8384;47.996;7.786;2023-07-24T04:34:26;9.57;;;8.67;;
16543;SDS011;8384;47.996;7.786;2023-07-24T04:36:51;9.30;;;8.40;;
16543;SDS011;8384;47.996;7.786;2023-07-24T04:39:17;8.57;;;7.67;;
16543;SDS011;8384;47.996;7.786;2023-07-24T04:41:42;8.87;;;7.30;;
16543;SDS011;8384;47.996;7.786;2023-07-24T04:44:07;10.40;;;8.20;;
16543;SDS011;8384;47.996;7.786;2023-07-24T04:46:32;9.03;;;7.20;;
16543;SDS011;8384;47.996;7.786;2023-07-24T04:48:58;8.87;;;7.97;;
16543;SDS011;8384;47.996;7.786;2023-07-24T04:51:23;7.73;;;6.93;;
16543;SDS011;8384;47.996;7.786;2023-07-24T04:53:48;8.67;;;7.77;;
16543;SDS011;8384;47.996;7.786;2023-07-24T04:56:14;8.87;;;7.50;;
16543;SDS011;8384;47.996;7.786;2023-07-24T04:58:39;8.70;;;7.80;;
16543;SDS011;8384;47.996;7.786;2023-07-24T05:01:04;9.03;;;7.90;;
16543;SDS011;8384;47.996;7.786;2023-07-24T05:03:30;9.23;;;7.63;;
16543;SDS011;8384;47.996;7.786;2023-07-24T05:05:57;9.93;;;8.07;;
16543;SDS011;8384;47.996;7.786;2023-07-24T05:08:22;8.30;;;7.50;;
16543;SDS011;8384;47.996;7.786;2023-07-24T05:10:53;10.83;;;8.33;;
16543;SDS011;8384;47.996;7.786;2023-07-24T05:13:19;8.40;;;7.30;;
16543;SDS011;8384;47.996;7.786;2023-07-24T05:15:45;8.77;;;7.30;;
16543;SDS011;8384;47.996;7.786;2023-07-24T05:18:10;11.17;;;6.90;;
16543;SDS011;8384;47.996;7.786;2023-07-24T05:20:35;7.33;;;6.47;;
16543;SDS011;8384;47.996;7.786;2023-07-24T05:23:00;7.67;;;6.77;;
16543;SDS011;8384;47.996;7.786;2023-07-24T05:25:26;7.07;;;5.90;;
16543;SDS011;8384;47.996;7.786;2023-07-24T05:27:51;7.53;;;6.13;;
16543;SDS011;8384;47.996;7.786;2023-07-24T05:30:16;6.00;;;5.40;;
16543;SDS011;8384;47.996;7.786;2023-07-24T05:32:41;6.70;;;5.87;;
16543;SDS011;8384;47.996;7.786;2023-07-24T05:35:07;6.27;;;5.40;;
16543;SDS011;8384;47.996;7.786;2023-07-24T05:37:32;6.73;;;5.27;;
16543;SDS011;8384;47.996;7.786;2023-07-24T05:39:57;7.67;;;5.77;;
16543;SDS011;8384;47.996;7.786;2023-07-24T05:42:23;6.47;;;5.77;;
16543;SDS011;8384;47.996;7.786;2023-07-24T05:44:48;6.37;;;5.70;;
16543;SDS011;8384;47.996;7.786;2023-07-24T05:47:13;6.53;;;5.60;;
16543;SDS011;8384;47.996;7.786;2023-07-24T05:49:38;6.27;;;5.57;;
16543;SDS011;8384;47.996;7.786;2023-07-24T05:52:04;6.57;;;5.83;;
16543;SDS011;8384;47.996;7.786;2023-07-24T05:54:29;7.20;;;6.07;;
16543;SDS011;8384;47.996;7.786;2023-07-24T05:56:54;8.77;;;5.67;;
16543;SDS011;8384;47.996;7.786;2023-07-24T05:59:19;6.17;;;5.27;;
16543;SDS011;8384;47.996;7.786;2023-07-24T06:01:45;8.40;;;5.90;;
16543;SDS011;8384;47.996;7.786;2023-07-24T06:04:10;7.17;;;5.83;;
16543;SDS011;8384;47.996;7.786;2023-07-24T06:06:35;6.53;;;5.70;;
16543;SDS011;8384;47.996;7.786;2023-07-24T06:09:01;8.13;;;5.73;;
16543;SDS011;8384;47.996;7.786;2023-07-24T06:11:28;7.73;;;5.53;;
16543;SDS011;8384;47.996;7.786;2023-07-24T06:13:53;6.43;;;5.57;;
16543;SDS011;8384;47.996;7.786;2023-07-24T06:16:18;5.83;;;4.87;;
16543;SDS011;8384;47.996;7.786;2023-07-24T06:18:44;6.13;;;5.30;;
16543;SDS011;8384;47.996;7.786;2023-07-24T06:21:09;6.33;;;4.97;;
16543;SDS011;8384;47.996;7.786;2023-07-24T06:23:35;5.50;;;5.00;;
16543;SDS011;8384;47.996;7.786;2023-07-24T06:26:00;5.33;;;4.73;;
16543;SDS011;8384;47.996;7.786;2023-07-24T06:28:25;5.50;;;4.73;;
16543;SDS011;8384;47.996;7.786;2023-07-24T06:30:53;5.40;;;4.90;;
16543;SDS011;8384;47.996;7.786;2023-07-24T06:33:19;4.97;;;4.47;;
16543;SDS011;8384;47.996;7.786;2023-07-24T06:35:44;8.97;;;4.33;;
16543;SDS011;8384;47.996;7.786;2023-07-24T06:38:09;4.23;;;3.83;;
16543;SDS011;8384;47.996;7.786;2023-07-24T06:40:34;6.23;;;4.30;;
16543;SDS011;8384;47.996;7.786;2023-07-24T06:43:00;5.23;;;4.13;;
16543;SDS011;8384;47.996;7.786;2023-07-24T06:45:25;4.70;;;3.57;;
16543;SDS011;8384;47.996;7.786;2023-07-24T06:47:50;4.30;;;3.53;;
16543;SDS011;8384;47.996;7.786;2023-07-24T06:50:16;4.60;;;3.93;;
16543;SDS011;8384;47.996;7.786;2023-07-24T06:52:41;4.30;;;3.90;;
16543;SDS011;8384;47.996;7.786;2023-07-24T06:55:06;4.83;;;4.03;;
16543;SDS011;8384;47.996;7.786;2023-07-24T06:57:32;5.83;;;4.10;;
16543;SDS011;8384;47.996;7.786;2023-07-24T06:59:57;4.67;;;4.07;;
16543;SDS011;8384;47.996;7.786;2023-07-24T07:02:22;4.40;;;4.00;;
16543;SDS011;8384;47.996;7.786;2023-07-24T07:04:48;5.43;;;3.70;;
16543;SDS011;8384;47.996;7.786;2023-07-24T07:07:13;4.70;;;3.80;;
16543;SDS011;8384;47.996;7.786;2023-07-24T07:09:38;4.80;;;4.13;;
16543;SDS011;8384;47.996;7.786;2023-07-24T07:12:03;4.73;;;4.23;;
16543;SDS011;8384;47.996;7.786;2023-07-24T07:14:29;6.73;;;4.40;;
16543;SDS011;8384;47.996;7.786;2023-07-24T07:16:54;4.53;;;3.80;;
16543;SDS011;8384;47.996;7.786;2023-07-24T07:19:19;4.60;;;3.93;;
16543;SDS011;8384;47.996;7.786;2023-07-24T07:21:45;7.10;;;4.60;;
16543;SDS011;8384;47.996;7.786;2023-07-24T07:24:10;5.73;;;4.67;;
16543;SDS011;8384;47.996;7.786;2023-07-24T07:26:35;5.30;;;4.80;;
16543;SDS011;8384;47.996;7.786;2023-07-24T07:29:00;5.00;;;4.60;;
16543;SDS011;8384;47.996;7.786;2023-07-24T07:31:26;5.53;;;4.10;;
16543;SDS011;8384;47.996;7.786;2023-07-24T07:33:51;5.00;;;4.50;;
16543;SDS011;8384;47.996;7.786;2023-07-24T07:36:16;5.77;;;4.07;;
16543;SDS011;8384;47.996;7.786;2023-07-24T07:38:42;5.33;;;4.83;;
16543;SDS011;8384;47.996;7.786;2023-07-24T07:41:08;6.20;;;4.27;;
16543;SDS011;8384;47.996;7.786;2023-07-24T07:43:33;4.80;;;4.30;;
16543;SDS011;8384;47.996;7.786;2023-07-24T07:46:00;4.80;;;4.23;;
16543;SDS011;8384;47.996;7.786;2023-07-24T07:48:26;5.13;;;4.20;;
16543;SDS011;8384;47.996;7.786;2023-07-24T07:50:51;5.43;;;4.67;;
16543;SDS011;8384;47.996;7.786;2023-07-24T07:53:17;6.33;;;4.97;;
16543;SDS011;8384;47.996;7.786;2023-07-24T07:55:42;6.67;;;4.93;;
16543;SDS011;8384;47.996;7.786;2023-07-24T07:58:07;6.40;;;5.23;;
16543;SDS011;8384;47.996;7.786;2023-07-24T08:00:33;5.30;;;4.50;;
16543;SDS011;8384;47.996;7.786;2023-07-24T08:02:58;5.30;;;4.80;;
16543;SDS011;8384;47.996;7.786;2023-07-24T08:05:23;6.80;;;4.67;;
16543;SDS011;8384;47.996;7.786;2023-07-24T08:07:48;8.70;;;5.17;;
16543;SDS011;8384;47.996;7.786;2023-07-24T08:10:14;6.20;;;5.17;;
16543;SDS011;8384;47.996;7.786;2023-07-24T08:12:41;6.47;;;5.63;;
16543;SDS011;8384;47.996;7.786;2023-07-24T08:15:07;7.10;;;5.70;;
16543;SDS011;8384;47.996;7.786;2023-07-24T08:17:32;6.90;;;5.77;;
16543;SDS011;8384;47.996;7.786;2023-07-24T08:19:58;7.10;;;5.43;;
16543;SDS011;8384;47.996;7.786;2023-07-24T08:22:23;7.67;;;6.97;;
16543;SDS011;8384;47.996;7.786;2023-07-24T08:24:49;6.53;;;5.73;;
16543;SDS011;8384;47.996;7.786;2023-07-24T08:27:16;7.87;;;5.70;;
16543;SDS011;8384;47.996;7.786;2023-07-24T08:29:41;6.50;;;5.63;;
16543;SDS011;8384;47.996;7.786;2023-07-24T08:32:06;5.53;;;5.03;;
16543;SDS011;8384;47.996;7.786;2023-07-24T08:34:32;6.47;;;5.80;;
16543;SDS011;8384;47.996;7.786;2023-07-24T08:36:57;7.10;;;5.80;;
16543;SDS011;8384;47.996;7.786;2023-07-24T08:39:23;6.87;;;5.70;;
16543;SDS011;8384;47.996;7.786;2023-07-24T08:41:48;5.80;;;5.20;;
16543;SDS011;8384;47.996;7.786;2023-07-24T08:44:13;6.10;;;5.50;;
16543;SDS011;8384;47.996;7.786;2023-07-24T08:46:39;5.90;;;5.27;;
16543;SDS011;8384;47.996;7.786;2023-07-24T08:49:06;6.60;;;5.87;;
16543;SDS011;8384;47.996;7.786;2023-07-24T08:51:36;6.83;;;5.90;;
16543;SDS011;8384;47.996;7.786;2023-07-24T08:54:02;6.43;;;5.67;;
16543;SDS011;8384;47.996;7.786;2023-07-24T08:56:29;8.63;;;6.03;;
16543;SDS011;8384;47.996;7.786;2023-07-24T08:58:54;6.93;;;6.13;;
16543;SDS011;8384;47.996;7.786;2023-07-24T09:01:20;8.77;;;6.10;;
16543;SDS011;8384;47.996;7.786;2023-07-24T09:03:45;6.80;;;5.60;;
16543;SDS011;8384;47.996;7.786;2023-07-24T09:06:10;8.93;;;6.60;;
16543;SDS011;8384;47.996;7.786;2023-07-24T09:08:37;8.90;;;6.60;;
16543;SDS011;8384;47.996;7.786;2023-07-24T09:11:07;9.07;;;6.90;;
16543;SDS011;8384;47.996;7.786;2023-07-24T09:13:35;8.97;;;6.57;;
16543;SDS011;8384;47.996;7.786;2023-07-24T09:16:02;7.53;;;6.03;;
16543;SDS011;8384;47.996;7.786;2023-07-24T09:18:38;6.90;;;6.20;;
16543;SDS011;8384;47.996;7.786;2023-07-24T09:21:07;11.37;;;6.60;;
16543;SDS011;8384;47.996;7.786;2023-07-24T09:23:33;8.50;;;6.57;;
16543;SDS011;8384;47.996;7.786;2023-07-24T09:25:59;11.97;;;7.60;;
16543;SDS011;8384;47.996;7.786;2023-07-24T09:28:30;11.00;;;7.90;;
16543;SDS011;8384;47.996;7.786;2023-07-24T09:30:56;9.00;;;6.30;;
16543;SDS011;8384;47.996;7.786;2023-07-24T09:33:23;7.60;;;5.73;;
16543;SDS011;8384;47.996;7.786;2023-07-24T09:35:59;8.20;;;6.10;;
16543;SDS011;8384;47.996;7.786;2023-07-24T09:38:25;8.00;;;6.50;;
16543;SDS011;8384;47.996;7.786;2023-07-24T09:40:52;10.60;;;6.23;;
16543;SDS011;8384;47.996;7.786;2023-07-24T09:43:19;7.27;;;5.50;;
16543;SDS011;8384;47.996;7.786;2023-07-24T09:45:46;8.40;;;5.20;;
16543;SDS011;8384;47.996;7.786;2023-07-24T09:48:13;7.67;;;5.87;;
16543;SDS011;8384;47.996;7.786;2023-07-24T09:50:39;5.73;;;5.03;;
16543;SDS011;8384;47.996;7.786;2023-07-24T09:53:05;7.40;;;5.20;;
16543;SDS011;8384;47.996;7.786;2023-07-24T09:55:41;5.90;;;5.10;;
16543;SDS011;8384;47.996;7.786;2023-07-24T09:58:12;5.70;;;5.10;;
16543;SDS011;8384;47.996;7.786;2023-07-24T10:00:39;7.57;;;5.30;;
16543;SDS011;8384;47.996;7.786;2023-07-24T10:03:05;8.60;;;5.20;;
16543;SDS011;8384;47.996;7.786;2023-07-24T10:05:30;6.20;;;4.93;;
16543;SDS011;8384;47.996;7.786;2023-07-24T10:07:56;6.13;;;4.30;;
16543;SDS011;8384;47.996;7.786;2023-07-24T10:10:21;5.07;;;3.90;;
16543;SDS011;8384;47.996;7.786;2023-07-24T10:12:47;4.83;;;2.87;;
16543;SDS011;8384;47.996;7.786;2023-07-24T10:15:13;3.17;;;2.80;;
16543;SDS011;8384;47.996;7.786;2023-07-24T10:17:39;4.57;;;3.10;;
16543;SDS011;8384;47.996;7.786;2023-07-24T10:20:07;5.63;;;3.17;;
16543;SDS011;8384;47.996;7.786;2023-07-24T10:22:35;4.70;;;2.80;;
16543;SDS011;8384;47.996;7.786;2023-07-24T10:25:02;3.57;;;2.53;;
16543;SDS011;8384;47.996;7.786;2023-07-24T10:27:29;3.37;;;2.80;;
16543;SDS011;8384;47.996;7.786;2023-07-24T10:30:01;2.43;;;2.23;;
16543;SDS011;8384;47.996;7.786;2023-07-24T10:32:28;2.50;;;2.30;;
16543;SDS011;8384;47.996;7.786;2023-07-24T10:34:57;2.80;;;2.60;;
16543;SDS011;8384;47.996;7.786;2023-07-24T10:37:35;4.40;;;3.20;;
16543;SDS011;8384;47.996;7.786;2023-07-24T10:40:02;4.60;;;3.23;;
16543;SDS011;8384;47.996;7.786;2023-07-24T10:42:29;3.57;;;3.20;;
16543;SDS011;8384;47.996;7.786;2023-07-24T10:45:05;4.97;;;3.57;;
16543;SDS011;8384;47.996;7.786;2023-07-24T10:47:31;3.87;;;3.37;;
16543;SDS011;8384;47.996;7.786;2023-07-24T10:49:57;4.20;;;3.50;;
16543;SDS011;8384;47.996;7.786;2023-07-24T10:52:32;3.87;;;3.57;;
16543;SDS011;8384;47.996;7.786;2023-07-24T10:55:04;4.10;;;3.70;;
16543;SDS011;8384;47.996;7.786;2023-07-24T10:57:30;4.10;;;3.70;;
16543;SDS011;8384;47.996;7.786;2023-07-24T10:59:56;4.00;;;3.60;;
16543;SDS011;8384;47.996;7.786;2023-07-24T11:02:21;3.97;;;3.43;;
16543;SDS011;8384;47.996;7.786;2023-07-24T11:04:46;3.53;;;3.10;;
16543;SDS011;8384;47.996;7.786;2023-07-24T11:07:12;2.80;;;2.60;;
16543;SDS011;8384;47.996;7.786;2023-07-24T11:09:38;2.97;;;2.77;;
16543;SDS011;8384;47.996;7.786;2023-07-24T11:12:09;3.10;;;2.80;;
16543;SDS011;8384;47.996;7.786;2023-07-24T11:14:35;3.20;;;2.90;;
16543;SDS011;8384;47.996;7.786;2023-07-24T11:17:00;2.93;;;2.63;;
16543;SDS011;8384;47.996;7.786;2023-07-24T11:19:25;3.57;;;2.67;;
16543;SDS011;8384;47.996;7.786;2023-07-24T11:21:50;3.30;;;2.80;;
16543;SDS011;8384;47.996;7.786;2023-07-24T11:24:17;2.70;;;2.47;;
16543;SDS011;8384;47.996;7.786;2023-07-24T11:26:42;2.73;;;2.53;;
16543;SDS011;8384;47.996;7.786;2023-07-24T11:29:11;2.77;;;2.50;;
16543;SDS011;8384;47.996;7.786;2023-07-24T11:31:37;2.87;;;2.60;;
16543;SDS011;8384;47.996;7.786;2023-07-24T11:34:05;3.30;;;2.70;;
16543;SDS011;8384;47.996;7.786;2023-07-24T11:36:32;2.53;;;2.33;;
16543;SDS011;8384;47.996;7.786;2023-07-24T11:38:57;3.07;;;2.77;;
16543;SDS011;8384;47.996;7.786;2023-07-24T11:41:23;3.00;;;2.73;;
16543;SDS011;8384;47.996;7.786;2023-07-24T11:43:49;3.77;;;2.90;;
16543;SDS011;8384;47.996;7.786;2023-07-24T11:46:28;3.37;;;3.07;;
16543;SDS011;8384;47.996;7.786;2023-07-24T11:48:55;3.97;;;3.17;;
16543;SDS011;8384;47.996;7.786;2023-07-24T11:51:22;3.13;;;2.93;;
16543;SDS011;8384;47.996;7.786;2023-07-24T11:53:49;3.30;;;3.00;;
16543;SDS011;8384;47.996;7.786;2023-07-24T11:56:15;3.33;;;3.03;;
16543;SDS011;8384;47.996;7.786;2023-07-24T11:58:42;3.40;;;3.07;;
16543;SDS011;8384;47.996;7.786;2023-07-24T12:01:07;3.17;;;2.87;;
16543;SDS011;8384;47.996;7.786;2023-07-24T12:03:32;3.33;;;3.00;;
16543;SDS011;8384;47.996;7.786;2023-07-24T12:05:58;3.30;;;3.00;;
16543;SDS011;8384;47.996;7.786;2023-07-24T12:08:30;4.83;;;3.23;;
16543;SDS011;8384;47.996;7.786;2023-07-24T12:10:59;3.73;;;3.40;;
16543;SDS011;8384;47.996;7.786;2023-07-24T12:13:25;3.67;;;3.27;;
16543;SDS011;8384;47.996;7.786;2023-07-24T12:15:50;3.20;;;2.90;;
16543;SDS011;8384;47.996;7.786;2023-07-24T12:18:15;3.73;;;3.27;;
16543;SDS011;8384;47.996;7.786;2023-07-24T12:20:41;3.23;;;2.93;;
16543;SDS011;8384;47.996;7.786;2023-07-24T12:23:06;3.20;;;2.90;;
16543;SDS011;8384;47.996;7.786;2023-07-24T12:25:31;3.30;;;3.00;;
16543;SDS011;8384;47.996;7.786;2023-07-24T12:27:57;3.40;;;3.10;;
16543;SDS011;8384;47.996;7.786;2023-07-24T12:30:22;3.97;;;2.87;;
16543;SDS011;8384;47.996;7.786;2023-07-24T12:32:48;3.37;;;3.07;;
16543;SDS011;8384;47.996;7.786;2023-07-24T12:35:13;3.20;;;2.73;;
16543;SDS011;8384;47.996;7.786;2023-07-24T12:37:38;5.87;;;4.17;;
16543;SDS011;8384;47.996;7.786;2023-07-24T12:40:04;3.60;;;3.30;;
16543;SDS011;8384;47.996;7.786;2023-07-24T12:42:30;3.73;;;3.20;;
16543;SDS011;8384;47.996;7.786;2023-07-24T12:44:55;3.73;;;3.00;;
16543;SDS011;8384;47.996;7.786;2023-07-24T12:47:21;3.07;;;2.77;;
16543;SDS011;8384;47.996;7.786;2023-07-24T12:49:47;3.57;;;3.07;;
16543;SDS011;8384;47.996;7.786;2023-07-24T12:52:12;3.30;;;3.00;;
16543;SDS011;8384;47.996;7.786;2023-07-24T12:54:37;3.13;;;2.90;;
16543;SDS011;8384;47.996;7.786;2023-07-24T12:57:03;3.20;;;2.90;;
16543;SDS011;8384;47.996;7.786;2023-07-24T12:59:28;3.13;;;2.83;;
16543;SDS011;8384;47.996;7.786;2023-07-24T13:01:54;2.83;;;2.63;;
16543;SDS011;8384;47.996;7.786;2023-07-24T13:04:19;2.60;;;2.37;;
16543;SDS011;8384;47.996;7.786;2023-07-24T13:06:45;3.33;;;2.97;;
16543;SDS011;8384;47.996;7.786;2023-07-24T13:09:10;3.20;;;2.80;;
16543;SDS011;8384;47.996;7.786;2023-07-24T13:11:36;2.83;;;2.63;;
16543;SDS011;8384;47.996;7.786;2023-07-24T13:14:02;3.63;;;3.10;;
16543;SDS011;8384;47.996;7.786;2023-07-24T13:16:27;3.23;;;2.93;;
16543;SDS011;8384;47.996;7.786;2023-07-24T13:18:53;3.50;;;3.20;;
16543;SDS011;8384;47.996;7.786;2023-07-24T13:21:18;3.60;;;3.30;;
16543;SDS011;8384;47.996;7.786;2023-07-24T13:23:43;5.10;;;4.00;;
16543;SDS011;8384;47.996;7.786;2023-07-24T13:26:09;6.30;;;3.97;;
16543;SDS011;8384;47.996;7.786;2023-07-24T13:28:35;4.13;;;3.73;;
16543;SDS011;8384;47.996;7.786;2023-07-24T13:33:56;4.87;;;4.30;;
16543;SDS011;8384;47.996;7.786;2023-07-24T13:36:21;5.00;;;4.40;;
16543;SDS011;8384;47.996;7.786;2023-07-24T13:38:46;6.27;;;5.07;;
16543;SDS011;8384;47.996;7.786;2023-07-24T13:41:12;7.23;;;5.03;;
16543;SDS011;8384;47.996;7.786;2023-07-24T13:43:38;6.50;;;5.43;;
16543;SDS011;8384;47.996;7.786;2023-07-24T13:46:03;6.40;;;5.23;;
16543;SDS011;8384;47.996;7.786;2023-07-24T13:48:29;5.70;;;5.10;;
16543;SDS011;8384;47.996;7.786;2023-07-24T13:50:54;6.03;;;5.40;;
16543;SDS011;8384;47.996;7.786;2023-07-24T13:53:20;6.13;;;5.53;;
16543;SDS011;8384;47.996;7.786;2023-07-24T13:55:46;6.00;;;5.40;;
16543;SDS011;8384;47.996;7.786;2023-07-24T13:58:11;7.90;;;5.70;;
16543;SDS011;8384;47.996;7.786;2023-07-24T14:00:37;6.13;;;5.53;;
16543;SDS011;8384;47.996;7.786;2023-07-24T14:03:02;6.77;;;5.97;;
16543;SDS011;8384;47.996;7.786;2023-07-24T14:05:27;6.73;;;5.47;;
16543;SDS011;8384;47.996;7.786;2023-07-24T14:07:53;5.97;;;5.37;;
16543;SDS011;8384;47.996;7.786;2023-07-24T14:10:19;6.40;;;5.77;;
16543;SDS011;8384;47.996;7.786;2023-07-24T14:12:44;6.33;;;5.50;;
16543;SDS011;8384;47.996;7.786;2023-07-24T14:15:09;5.97;;;5.13;;
16543;SDS011;8384;47.996;7.786;2023-07-24T14:17:35;6.17;;;5.50;;
16543;SDS011;8384;47.996;7.786;2023-07-24T14:20:01;5.03;;;4.53;;
16543;SDS011;8384;47.996;7.786;2023-07-24T14:22:27;5.80;;;4.97;;
16543;SDS011;8384;47.996;7.786;2023-07-24T14:24:52;5.20;;;4.70;;
16543;SDS011;8384;47.996;7.786;2023-07-24T14:27:18;5.17;;;4.67;;
16543;SDS011;8384;47.996;7.786;2023-07-24T14:29:44;5.73;;;5.07;;
16543;SDS011;8384;47.996;7.786;2023-07-24T14:32:09;5.33;;;4.83;;
16543;SDS011;8384;47.996;7.786;2023-07-24T14:34:34;5.13;;;4.60;;
16543;SDS011;8384;47.996;7.786;2023-07-24T14:37:00;6.80;;;5.03;;
16543;SDS011;8384;47.996;7.786;2023-07-24T14:39:25;5.83;;;4.47;;
16543;SDS011;8384;47.996;7.786;2023-07-24T14:41:50;5.03;;;4.63;;
16543;SDS011;8384;47.996;7.786;2023-07-24T14:44:16;5.40;;;4.70;;
16543;SDS011;8384;47.996;7.786;2023-07-24T14:46:41;5.60;;;5.10;;
16543;SDS011;8384;47.996;7.786;2023-07-24T14:49:06;6.00;;;5.37;;
16543;SDS011;8384;47.996;7.786;2023-07-24T14:51:32;5.37;;;4.83;;
16543;SDS011;8384;47.996;7.786;2023-07-24T14:53:57;4.70;;;4.30;;
16543;SDS011;8384;47.996;7.786;2023-07-24T14:56:23;4.83;;;4.43;;
16543;SDS011;8384;47.996;7.786;2023-07-24T14:58:48;4.70;;;4.30;;
16543;SDS011;8384;47.996;7.786;2023-07-24T15:01:13;4.57;;;4.17;;